Terminal Aerodrome Forecast
Issued by NWS

Home | Current Version | Previous Version | Text Only | Print | Product List | Glossary On
Versions: 1 2 3 4 5 6 7 8 9 10 11 12 13 14 15 16 17 18 19 20 21 22 23 24 25 26 27 28 29 30 31 32 33 34 35 36 37 38
000
FTUS41 KCAR 291120
TAFFVE
TAF
KFVE 291120Z 2912/3012 24009KT P6SM BKN035
     FM291400 24010G20KT P6SM BKN035
     FM291900 26016G29KT P6SM BKN040
     FM300000 31016G29KT P6SM SCT130
     FM300400 32012G20KT P6SM SCT045
     FM300800 31009KT P6SM FEW050=

USA.gov is the U.S. government's official web portal to all federal, state and local government web resources and services.